Shaws, Illinois
Current Conditions -  °F | °C
As of 2:35 PM on Tuesday 25 Nov 2014 (Local Time) from KSQI Reporting Station
Few Clouds Few Clouds  
Wind Chill: 16°   Ceiling: Unl
Heat Index: 25°   Visibility: 10mi
Dew Point: 16°   Wind: 8mph
Humidity: 69%   Direction: 250°WSW
Pressure: 30.15"   Gusts: NA
Location:  41.7017°N, 89.348°W
Report Text: KSQI 252035Z 25007KT 10SM FEW016 M04/M09 A3015 RMK AO1
Loading
Personal Weather Stations






























Interactive Weather Map New forecast layout! Learn more

10-Day Weather Forecast

Advertisements
Track Severe Weather on mobile